메인 페이지
METAR-TAF:

METAR-TAF

공항 :

Rajahmundry, 인도

위도: 17-06-37N, 경도: 81-49-06E, 고도: 46m

현재 날씨관측

예보는 4 시간 29분 전, 16:00시(UTC)에 발표되었습니다.
북동5kt
온도 24°C
습도 78%
기압 1016 hPa
시정: 4000m
박무

METAR: VORY 301600Z 04005KT 4000 BR NSC 24/20 Q1016 NOSIG

시각: 01:59 (20:29 UTC)

예보

예보는 12 시간 29분 전, 08:00시(UTC)에 발표되었습니다.
예보 대상 시간: 30일 09시부터 30일 18시까지 (UTC)
동북동8kt, 순간 최대 풍속 18kt
시정: 6000m
고도 1500ft 상공 구름 조금
전환 중
30일 11시부터 30일 13시까지 (UTC)
남동6kt
시정: 5000m
연무
전환 중
30일 15시부터 30일 17시까지 (UTC)
북동6kt
시정: 3000m
박무

TAF: VORY 300800Z 3009/3018 07008G18KT 6000 FEW015 BECMG 3011/3013 13006KT 5000 HZ NSC BECMG 3015/3017 05006KT 3000 BR NSC

4,000개 이상의 공항 관측 자료 및 예보 (METAR 및 TAF 보고).

지도상에서 검색 가능한 기상관측소가 노란 점과 빨간 점으로 표시되어 있습니다.

기상관측소 명을 보려면 표시 위로 마우스를 이동하세요.

날씨 관측과 예보를 보려면 클릭하세요.

지도 변경 : 확대하려면 엑스 표시가 있는 녹색 버튼, 축소하려면 빼기 표시가 있는 녹색 버튼, 다음 페이지의 지도를 보려면 녹색 화살표를 클릭하세요.


METAR-TAF: